sensor_id;sensor_type;location;lat;lon;timestamp;P1;durP1;ratioP1;P2;durP2;ratioP2
67065;SDS011;53978;43.846;25.952;2022-12-18T00:01:19;10.50;;;5.63;;
67065;SDS011;53978;43.846;25.952;2022-12-18T00:03:48;11.10;;;5.82;;
67065;SDS011;53978;43.846;25.952;2022-12-18T00:06:14;10.38;;;5.95;;
67065;SDS011;53978;43.846;25.952;2022-12-18T00:08:41;11.95;;;6.22;;
67065;SDS011;53978;43.846;25.952;2022-12-18T00:11:15;11.23;;;6.18;;
67065;SDS011;53978;43.846;25.952;2022-12-18T00:13:42;11.85;;;6.97;;
67065;SDS011;53978;43.846;25.952;2022-12-18T00:16:13;12.63;;;6.40;;
67065;SDS011;53978;43.846;25.952;2022-12-18T00:18:40;14.15;;;7.50;;
67065;SDS011;53978;43.846;25.952;2022-12-18T00:21:09;14.85;;;6.70;;
67065;SDS011;53978;43.846;25.952;2022-12-18T00:23:36;13.50;;;7.05;;
67065;SDS011;53978;43.846;25.952;2022-12-18T00:26:06;14.13;;;6.80;;
67065;SDS011;53978;43.846;25.952;2022-12-18T00:28:36;11.82;;;5.95;;
67065;SDS011;53978;43.846;25.952;2022-12-18T00:31:02;11.35;;;6.90;;
67065;SDS011;53978;43.846;25.952;2022-12-18T00:33:32;12.85;;;6.75;;
67065;SDS011;53978;43.846;25.952;2022-12-18T00:36:01;15.45;;;7.18;;
67065;SDS011;53978;43.846;25.952;2022-12-18T00:38:27;13.05;;;6.82;;
67065;SDS011;53978;43.846;25.952;2022-12-18T00:40:52;12.88;;;7.05;;
67065;SDS011;53978;43.846;25.952;2022-12-18T00:43:18;12.68;;;6.88;;
67065;SDS011;53978;43.846;25.952;2022-12-18T00:45:43;14.27;;;7.55;;
67065;SDS011;53978;43.846;25.952;2022-12-18T00:48:09;13.88;;;6.97;;
67065;SDS011;53978;43.846;25.952;2022-12-18T00:50:34;14.85;;;6.78;;
67065;SDS011;53978;43.846;25.952;2022-12-18T00:53:00;15.30;;;6.80;;
67065;SDS011;53978;43.846;25.952;2022-12-18T00:55:25;16.98;;;7.65;;
67065;SDS011;53978;43.846;25.952;2022-12-18T00:57:53;11.68;;;7.03;;
67065;SDS011;53978;43.846;25.952;2022-12-18T01:00:23;13.40;;;7.13;;
67065;SDS011;53978;43.846;25.952;2022-12-18T01:02:48;14.65;;;7.20;;
67065;SDS011;53978;43.846;25.952;2022-12-18T01:05:14;14.50;;;7.30;;
67065;SDS011;53978;43.846;25.952;2022-12-18T01:07:40;12.15;;;6.90;;
67065;SDS011;53978;43.846;25.952;2022-12-18T01:10:06;14.85;;;6.72;;
67065;SDS011;53978;43.846;25.952;2022-12-18T01:12:32;14.05;;;7.07;;
67065;SDS011;53978;43.846;25.952;2022-12-18T01:14:58;13.80;;;6.97;;
67065;SDS011;53978;43.846;25.952;2022-12-18T01:17:24;13.25;;;7.00;;
67065;SDS011;53978;43.846;25.952;2022-12-18T01:19:49;11.05;;;6.35;;
67065;SDS011;53978;43.846;25.952;2022-12-18T01:22:15;13.27;;;6.63;;
67065;SDS011;53978;43.846;25.952;2022-12-18T01:24:42;11.80;;;5.82;;
67065;SDS011;53978;43.846;25.952;2022-12-18T01:27:08;11.52;;;6.13;;
67065;SDS011;53978;43.846;25.952;2022-12-18T01:29:33;10.52;;;6.07;;
67065;SDS011;53978;43.846;25.952;2022-12-18T01:31:58;11.75;;;6.40;;
67065;SDS011;53978;43.846;25.952;2022-12-18T01:34:24;9.68;;;6.18;;
67065;SDS011;53978;43.846;25.952;2022-12-18T01:36:49;12.38;;;5.97;;
67065;SDS011;53978;43.846;25.952;2022-12-18T01:39:17;11.15;;;6.10;;
67065;SDS011;53978;43.846;25.952;2022-12-18T01:41:43;13.57;;;6.35;;
67065;SDS011;53978;43.846;25.952;2022-12-18T01:47:46;10.82;;;5.22;;
67065;SDS011;53978;43.846;25.952;2022-12-18T01:53:17;9.63;;;5.57;;
67065;SDS011;53978;43.846;25.952;2022-12-18T01:55:50;12.65;;;5.25;;
67065;SDS011;53978;43.846;25.952;2022-12-18T01:58:18;11.07;;;6.20;;
67065;SDS011;53978;43.846;25.952;2022-12-18T02:00:44;11.27;;;5.30;;
67065;SDS011;53978;43.846;25.952;2022-12-18T02:03:09;12.27;;;6.28;;
67065;SDS011;53978;43.846;25.952;2022-12-18T02:05:49;13.27;;;6.28;;
67065;SDS011;53978;43.846;25.952;2022-12-18T02:08:26;14.65;;;6.07;;
67065;SDS011;53978;43.846;25.952;2022-12-18T02:16:12;10.30;;;5.60;;
67065;SDS011;53978;43.846;25.952;2022-12-18T02:19:04;12.98;;;5.60;;
67065;SDS011;53978;43.846;25.952;2022-12-18T02:21:46;11.13;;;5.43;;
67065;SDS011;53978;43.846;25.952;2022-12-18T02:24:35;9.57;;;5.72;;
67065;SDS011;53978;43.846;25.952;2022-12-18T02:27:07;13.15;;;6.10;;
67065;SDS011;53978;43.846;25.952;2022-12-18T02:32:06;11.10;;;5.43;;
67065;SDS011;53978;43.846;25.952;2022-12-18T02:34:38;9.50;;;5.53;;
67065;SDS011;53978;43.846;25.952;2022-12-18T02:37:05;9.90;;;5.90;;
67065;SDS011;53978;43.846;25.952;2022-12-18T02:39:33;9.63;;;6.10;;
67065;SDS011;53978;43.846;25.952;2022-12-18T02:41:59;12.05;;;6.03;;
67065;SDS011;53978;43.846;25.952;2022-12-18T02:44:27;11.68;;;5.95;;
67065;SDS011;53978;43.846;25.952;2022-12-18T02:46:53;11.35;;;6.07;;
67065;SDS011;53978;43.846;25.952;2022-12-18T02:57:20;10.60;;;5.95;;
67065;SDS011;53978;43.846;25.952;2022-12-18T03:00:04;11.45;;;6.63;;
67065;SDS011;53978;43.846;25.952;2022-12-18T03:02:40;10.52;;;6.15;;
67065;SDS011;53978;43.846;25.952;2022-12-18T03:05:22;12.48;;;6.53;;
67065;SDS011;53978;43.846;25.952;2022-12-18T03:07:57;11.77;;;6.20;;
67065;SDS011;53978;43.846;25.952;2022-12-18T03:10:25;12.27;;;6.65;;
67065;SDS011;53978;43.846;25.952;2022-12-18T03:12:59;11.98;;;6.68;;
67065;SDS011;53978;43.846;25.952;2022-12-18T03:15:33;12.82;;;6.90;;
67065;SDS011;53978;43.846;25.952;2022-12-18T03:18:08;13.43;;;7.13;;
67065;SDS011;53978;43.846;25.952;2022-12-18T03:20:38;12.52;;;6.68;;
67065;SDS011;53978;43.846;25.952;2022-12-18T03:23:24;11.50;;;6.60;;
67065;SDS011;53978;43.846;25.952;2022-12-18T03:25:53;13.75;;;6.70;;
67065;SDS011;53978;43.846;25.952;2022-12-18T03:28:22;16.15;;;7.63;;
67065;SDS011;53978;43.846;25.952;2022-12-18T03:30:49;12.38;;;6.75;;
67065;SDS011;53978;43.846;25.952;2022-12-18T03:33:18;13.70;;;6.90;;
67065;SDS011;53978;43.846;25.952;2022-12-18T03:35:47;17.63;;;7.40;;
67065;SDS011;53978;43.846;25.952;2022-12-18T03:38:13;14.02;;;7.07;;
67065;SDS011;53978;43.846;25.952;2022-12-18T03:43:30;14.67;;;7.30;;
67065;SDS011;53978;43.846;25.952;2022-12-18T03:46:13;15.77;;;7.05;;
67065;SDS011;53978;43.846;25.952;2022-12-18T03:48:42;14.35;;;6.68;;
67065;SDS011;53978;43.846;25.952;2022-12-18T03:51:23;16.73;;;7.00;;
67065;SDS011;53978;43.846;25.952;2022-12-18T03:56:21;14.65;;;7.72;;
67065;SDS011;53978;43.846;25.952;2022-12-18T03:58:49;16.00;;;7.63;;
67065;SDS011;53978;43.846;25.952;2022-12-18T04:01:16;14.35;;;7.28;;
67065;SDS011;53978;43.846;25.952;2022-12-18T04:03:43;15.95;;;7.50;;
67065;SDS011;53978;43.846;25.952;2022-12-18T04:06:09;14.32;;;7.25;;
67065;SDS011;53978;43.846;25.952;2022-12-18T04:08:35;17.58;;;7.70;;
67065;SDS011;53978;43.846;25.952;2022-12-18T04:11:01;16.58;;;7.05;;
67065;SDS011;53978;43.846;25.952;2022-12-18T04:13:33;14.07;;;7.43;;
67065;SDS011;53978;43.846;25.952;2022-12-18T04:16:00;13.75;;;7.28;;
67065;SDS011;53978;43.846;25.952;2022-12-18T04:18:29;17.70;;;8.18;;
67065;SDS011;53978;43.846;25.952;2022-12-18T04:20:54;15.10;;;7.05;;
67065;SDS011;53978;43.846;25.952;2022-12-18T04:23:20;15.38;;;7.75;;
67065;SDS011;53978;43.846;25.952;2022-12-18T04:25:46;14.23;;;7.35;;
67065;SDS011;53978;43.846;25.952;2022-12-18T04:28:12;16.08;;;7.38;;
67065;SDS011;53978;43.846;25.952;2022-12-18T04:30:37;19.77;;;8.00;;
67065;SDS011;53978;43.846;25.952;2022-12-18T04:33:03;18.10;;;8.40;;
67065;SDS011;53978;43.846;25.952;2022-12-18T04:35:38;12.80;;;7.07;;
67065;SDS011;53978;43.846;25.952;2022-12-18T04:38:07;18.35;;;8.05;;
67065;SDS011;53978;43.846;25.952;2022-12-18T04:40:36;14.95;;;7.88;;
67065;SDS011;53978;43.846;25.952;2022-12-18T04:43:04;15.77;;;7.80;;
67065;SDS011;53978;43.846;25.952;2022-12-18T04:45:34;10.93;;;6.47;;
67065;SDS011;53978;43.846;25.952;2022-12-18T04:48:02;15.05;;;8.23;;
67065;SDS011;53978;43.846;25.952;2022-12-18T04:50:28;14.02;;;7.97;;
67065;SDS011;53978;43.846;25.952;2022-12-18T04:52:54;18.30;;;8.40;;
67065;SDS011;53978;43.846;25.952;2022-12-18T04:55:20;17.08;;;8.30;;
67065;SDS011;53978;43.846;25.952;2022-12-18T04:57:46;16.75;;;7.25;;
67065;SDS011;53978;43.846;25.952;2022-12-18T05:00:11;19.27;;;8.00;;
67065;SDS011;53978;43.846;25.952;2022-12-18T05:02:37;18.05;;;8.80;;
67065;SDS011;53978;43.846;25.952;2022-12-18T05:05:03;17.23;;;8.23;;
67065;SDS011;53978;43.846;25.952;2022-12-18T05:07:32;15.52;;;7.45;;
67065;SDS011;53978;43.846;25.952;2022-12-18T05:09:57;17.02;;;7.25;;
67065;SDS011;53978;43.846;25.952;2022-12-18T05:12:23;21.38;;;8.20;;
67065;SDS011;53978;43.846;25.952;2022-12-18T05:14:54;15.52;;;8.02;;
67065;SDS011;53978;43.846;25.952;2022-12-18T05:17:19;15.38;;;7.40;;
67065;SDS011;53978;43.846;25.952;2022-12-18T05:19:47;18.60;;;8.48;;
67065;SDS011;53978;43.846;25.952;2022-12-18T05:22:12;18.17;;;8.32;;
67065;SDS011;53978;43.846;25.952;2022-12-18T05:24:38;18.25;;;7.95;;
67065;SDS011;53978;43.846;25.952;2022-12-18T05:27:06;19.30;;;8.15;;
67065;SDS011;53978;43.846;25.952;2022-12-18T05:29:31;17.50;;;8.25;;
67065;SDS011;53978;43.846;25.952;2022-12-18T05:31:56;17.77;;;8.07;;
67065;SDS011;53978;43.846;25.952;2022-12-18T05:34:22;19.15;;;8.38;;
67065;SDS011;53978;43.846;25.952;2022-12-18T05:36:47;15.60;;;8.57;;
67065;SDS011;53978;43.846;25.952;2022-12-18T05:39:13;16.65;;;8.30;;
67065;SDS011;53978;43.846;25.952;2022-12-18T05:41:38;17.15;;;8.30;;
67065;SDS011;53978;43.846;25.952;2022-12-18T05:44:04;15.23;;;8.10;;
67065;SDS011;53978;43.846;25.952;2022-12-18T05:46:31;19.02;;;8.18;;
67065;SDS011;53978;43.846;25.952;2022-12-18T05:48:59;22.13;;;9.18;;
67065;SDS011;53978;43.846;25.952;2022-12-18T05:51:25;18.45;;;8.27;;
67065;SDS011;53978;43.846;25.952;2022-12-18T05:53:51;15.38;;;7.90;;
67065;SDS011;53978;43.846;25.952;2022-12-18T05:56:17;19.77;;;8.65;;
67065;SDS011;53978;43.846;25.952;2022-12-18T05:58:44;20.73;;;8.43;;
67065;SDS011;53978;43.846;25.952;2022-12-18T06:01:18;16.77;;;8.73;;
67065;SDS011;53978;43.846;25.952;2022-12-18T06:03:45;18.98;;;8.98;;
67065;SDS011;53978;43.846;25.952;2022-12-18T06:06:17;17.50;;;8.63;;
67065;SDS011;53978;43.846;25.952;2022-12-18T06:08:47;13.43;;;7.47;;
67065;SDS011;53978;43.846;25.952;2022-12-18T06:11:15;18.60;;;8.90;;
67065;SDS011;53978;43.846;25.952;2022-12-18T06:13:41;13.68;;;7.13;;
67065;SDS011;53978;43.846;25.952;2022-12-18T06:16:07;15.82;;;8.40;;
67065;SDS011;53978;43.846;25.952;2022-12-18T06:18:33;20.48;;;8.80;;
67065;SDS011;53978;43.846;25.952;2022-12-18T06:20:58;19.88;;;8.88;;
67065;SDS011;53978;43.846;25.952;2022-12-18T06:23:24;17.95;;;8.43;;
67065;SDS011;53978;43.846;25.952;2022-12-18T06:25:50;20.30;;;8.05;;
67065;SDS011;53978;43.846;25.952;2022-12-18T06:28:15;14.07;;;7.97;;
67065;SDS011;53978;43.846;25.952;2022-12-18T06:30:44;18.42;;;8.68;;
67065;SDS011;53978;43.846;25.952;2022-12-18T06:33:10;16.95;;;8.25;;
67065;SDS011;53978;43.846;25.952;2022-12-18T06:35:36;19.02;;;9.10;;
67065;SDS011;53978;43.846;25.952;2022-12-18T06:38:02;15.55;;;8.20;;
67065;SDS011;53978;43.846;25.952;2022-12-18T06:40:28;19.63;;;8.75;;
67065;SDS011;53978;43.846;25.952;2022-12-18T06:42:53;18.45;;;8.75;;
67065;SDS011;53978;43.846;25.952;2022-12-18T06:45:18;16.70;;;7.97;;
67065;SDS011;53978;43.846;25.952;2022-12-18T06:47:44;17.77;;;8.73;;
67065;SDS011;53978;43.846;25.952;2022-12-18T06:50:09;18.10;;;8.80;;
67065;SDS011;53978;43.846;25.952;2022-12-18T06:52:35;15.00;;;8.25;;
67065;SDS011;53978;43.846;25.952;2022-12-18T06:55:01;19.23;;;9.15;;
67065;SDS011;53978;43.846;25.952;2022-12-18T06:57:27;20.70;;;9.10;;
67065;SDS011;53978;43.846;25.952;2022-12-18T06:59:52;18.50;;;8.82;;
67065;SDS011;53978;43.846;25.952;2022-12-18T07:02:18;18.98;;;8.50;;
67065;SDS011;53978;43.846;25.952;2022-12-18T07:04:45;16.55;;;8.55;;
67065;SDS011;53978;43.846;25.952;2022-12-18T07:07:11;16.15;;;8.70;;
67065;SDS011;53978;43.846;25.952;2022-12-18T07:09:36;16.40;;;8.60;;
67065;SDS011;53978;43.846;25.952;2022-12-18T07:12:04;18.80;;;8.52;;
67065;SDS011;53978;43.846;25.952;2022-12-18T07:14:30;19.02;;;8.70;;
67065;SDS011;53978;43.846;25.952;2022-12-18T07:16:55;18.17;;;8.50;;
67065;SDS011;53978;43.846;25.952;2022-12-18T07:19:23;20.80;;;8.90;;
67065;SDS011;53978;43.846;25.952;2022-12-18T07:21:49;20.35;;;9.05;;
67065;SDS011;53978;43.846;25.952;2022-12-18T07:24:15;17.92;;;8.70;;
67065;SDS011;53978;43.846;25.952;2022-12-18T07:26:41;17.52;;;9.40;;
67065;SDS011;53978;43.846;25.952;2022-12-18T07:29:06;21.48;;;8.95;;
67065;SDS011;53978;43.846;25.952;2022-12-18T07:31:31;20.73;;;9.32;;
67065;SDS011;53978;43.846;25.952;2022-12-18T07:33:57;21.75;;;9.60;;
67065;SDS011;53978;43.846;25.952;2022-12-18T07:36:22;17.67;;;8.95;;
67065;SDS011;53978;43.846;25.952;2022-12-18T07:38:48;17.17;;;9.43;;
67065;SDS011;53978;43.846;25.952;2022-12-18T07:41:16;20.77;;;8.88;;
67065;SDS011;53978;43.846;25.952;2022-12-18T07:43:43;17.95;;;9.23;;
67065;SDS011;53978;43.846;25.952;2022-12-18T07:46:09;18.58;;;8.70;;
67065;SDS011;53978;43.846;25.952;2022-12-18T07:48:35;20.35;;;8.68;;
67065;SDS011;53978;43.846;25.952;2022-12-18T07:51:01;22.35;;;9.45;;
67065;SDS011;53978;43.846;25.952;2022-12-18T07:53:31;21.23;;;9.65;;
67065;SDS011;53978;43.846;25.952;2022-12-18T07:56:01;17.65;;;9.43;;
67065;SDS011;53978;43.846;25.952;2022-12-18T07:58:28;18.70;;;8.38;;
67065;SDS011;53978;43.846;25.952;2022-12-18T08:01:01;21.20;;;9.05;;
67065;SDS011;53978;43.846;25.952;2022-12-18T08:03:27;15.77;;;8.30;;
67065;SDS011;53978;43.846;25.952;2022-12-18T08:05:57;17.42;;;8.98;;
67065;SDS011;53978;43.846;25.952;2022-12-18T08:08:26;15.65;;;8.15;;
67065;SDS011;53978;43.846;25.952;2022-12-18T08:10:51;18.17;;;9.38;;
67065;SDS011;53978;43.846;25.952;2022-12-18T08:13:17;18.70;;;9.25;;
67065;SDS011;53978;43.846;25.952;2022-12-18T08:15:42;22.20;;;10.10;;
67065;SDS011;53978;43.846;25.952;2022-12-18T08:18:10;17.67;;;9.43;;
67065;SDS011;53978;43.846;25.952;2022-12-18T08:20:35;19.90;;;9.73;;
67065;SDS011;53978;43.846;25.952;2022-12-18T08:23:01;19.17;;;9.13;;
67065;SDS011;53978;43.846;25.952;2022-12-18T08:25:26;16.73;;;9.15;;
67065;SDS011;53978;43.846;25.952;2022-12-18T08:27:51;19.02;;;8.35;;
67065;SDS011;53978;43.846;25.952;2022-12-18T08:30:24;21.13;;;9.00;;
67065;SDS011;53978;43.846;25.952;2022-12-18T08:32:51;20.70;;;9.52;;
67065;SDS011;53978;43.846;25.952;2022-12-18T08:35:18;18.60;;;8.90;;
67065;SDS011;53978;43.846;25.952;2022-12-18T08:37:43;19.55;;;9.02;;
67065;SDS011;53978;43.846;25.952;2022-12-18T08:40:09;20.42;;;10.05;;
67065;SDS011;53978;43.846;25.952;2022-12-18T08:42:34;19.05;;;9.32;;
67065;SDS011;53978;43.846;25.952;2022-12-18T08:45:18;16.00;;;8.30;;
67065;SDS011;53978;43.846;25.952;2022-12-18T08:47:44;17.73;;;8.80;;
67065;SDS011;53978;43.846;25.952;2022-12-18T08:50:09;18.98;;;8.55;;
67065;SDS011;53978;43.846;25.952;2022-12-18T08:52:36;16.85;;;9.15;;
67065;SDS011;53978;43.846;25.952;2022-12-18T08:55:01;16.98;;;8.18;;
67065;SDS011;53978;43.846;25.952;2022-12-18T08:57:29;17.15;;;8.07;;
67065;SDS011;53978;43.846;25.952;2022-12-18T08:59:57;14.27;;;7.78;;
67065;SDS011;53978;43.846;25.952;2022-12-18T09:02:22;17.80;;;8.10;;
67065;SDS011;53978;43.846;25.952;2022-12-18T09:04:50;22.52;;;9.02;;
67065;SDS011;53978;43.846;25.952;2022-12-18T09:07:15;16.67;;;8.48;;
67065;SDS011;53978;43.846;25.952;2022-12-18T09:09:41;14.90;;;8.07;;
67065;SDS011;53978;43.846;25.952;2022-12-18T09:12:07;17.90;;;8.98;;
67065;SDS011;53978;43.846;25.952;2022-12-18T09:14:33;18.38;;;9.35;;
67065;SDS011;53978;43.846;25.952;2022-12-18T09:16:59;16.83;;;8.80;;
67065;SDS011;53978;43.846;25.952;2022-12-18T09:19:24;16.48;;;8.73;;
67065;SDS011;53978;43.846;25.952;2022-12-18T09:21:49;18.10;;;8.25;;
67065;SDS011;53978;43.846;25.952;2022-12-18T09:24:15;19.02;;;8.90;;
67065;SDS011;53978;43.846;25.952;2022-12-18T09:26:41;22.13;;;9.18;;
67065;SDS011;53978;43.846;25.952;2022-12-18T09:29:06;20.17;;;9.48;;
67065;SDS011;53978;43.846;25.952;2022-12-18T09:31:34;16.38;;;8.38;;
67065;SDS011;53978;43.846;25.952;2022-12-18T09:34:00;19.67;;;9.32;;
67065;SDS011;53978;43.846;25.952;2022-12-18T09:36:26;18.77;;;9.15;;
67065;SDS011;53978;43.846;25.952;2022-12-18T09:38:51;17.20;;;9.35;;
67065;SDS011;53978;43.846;25.952;2022-12-18T09:43:47;23.70;;;9.95;;
67065;SDS011;53978;43.846;25.952;2022-12-18T09:46:19;18.30;;;9.63;;
67065;SDS011;53978;43.846;25.952;2022-12-18T09:48:51;21.50;;;9.85;;
67065;SDS011;53978;43.846;25.952;2022-12-18T09:51:25;17.38;;;9.10;;
67065;SDS011;53978;43.846;25.952;2022-12-18T09:56:34;19.98;;;6.78;;
67065;SDS011;53978;43.846;25.952;2022-12-18T09:59:01;17.88;;;8.82;;
67065;SDS011;53978;43.846;25.952;2022-12-18T10:01:28;14.50;;;7.53;;
67065;SDS011;53978;43.846;25.952;2022-12-18T10:03:54;18.40;;;8.10;;
67065;SDS011;53978;43.846;25.952;2022-12-18T10:06:23;15.45;;;7.90;;
67065;SDS011;53978;43.846;25.952;2022-12-18T10:09:05;18.95;;;9.00;;
67065;SDS011;53978;43.846;25.952;2022-12-18T10:14:32;16.00;;;8.93;;
67065;SDS011;53978;43.846;25.952;2022-12-18T10:17:26;17.08;;;7.90;;
67065;SDS011;53978;43.846;25.952;2022-12-18T10:20:11;19.08;;;9.27;;
67065;SDS011;53978;43.846;25.952;2022-12-18T10:22:53;17.58;;;8.50;;
67065;SDS011;53978;43.846;25.952;2022-12-18T10:25:31;17.00;;;8.48;;
67065;SDS011;53978;43.846;25.952;2022-12-18T10:28:12;16.17;;;7.95;;
67065;SDS011;53978;43.846;25.952;2022-12-18T10:30:39;17.55;;;8.88;;
67065;SDS011;53978;43.846;25.952;2022-12-18T10:33:10;18.13;;;8.57;;
67065;SDS011;53978;43.846;25.952;2022-12-18T10:35:47;18.20;;;9.45;;
67065;SDS011;53978;43.846;25.952;2022-12-18T10:43:30;19.40;;;9.27;;
67065;SDS011;53978;43.846;25.952;2022-12-18T10:46:00;18.92;;;9.52;;
67065;SDS011;53978;43.846;25.952;2022-12-18T10:48:33;19.42;;;9.50;;
67065;SDS011;53978;43.846;25.952;2022-12-18T10:51:01;18.30;;;9.23;;
67065;SDS011;53978;43.846;25.952;2022-12-18T10:53:35;17.67;;;9.02;;
67065;SDS011;53978;43.846;25.952;2022-12-18T10:56:02;17.75;;;8.50;;
67065;SDS011;53978;43.846;25.952;2022-12-18T10:58:29;18.60;;;9.52;;
67065;SDS011;53978;43.846;25.952;2022-12-18T11:03:33;18.80;;;8.00;;
67065;SDS011;53978;43.846;25.952;2022-12-18T11:06:06;20.30;;;8.93;;
67065;SDS011;53978;43.846;25.952;2022-12-18T11:08:33;17.45;;;9.07;;
67065;SDS011;53978;43.846;25.952;2022-12-18T11:10:58;16.50;;;8.45;;
67065;SDS011;53978;43.846;25.952;2022-12-18T11:13:25;17.27;;;9.20;;
67065;SDS011;53978;43.846;25.952;2022-12-18T11:15:51;16.77;;;8.75;;
67065;SDS011;53978;43.846;25.952;2022-12-18T11:20:49;17.75;;;9.23;;
67065;SDS011;53978;43.846;25.952;2022-12-18T11:23:16;22.70;;;9.30;;
67065;SDS011;53978;43.846;25.952;2022-12-18T11:25:41;19.10;;;9.20;;
67065;SDS011;53978;43.846;25.952;2022-12-18T11:28:27;18.55;;;8.60;;
67065;SDS011;53978;43.846;25.952;2022-12-18T11:36:46;24.77;;;8.75;;
67065;SDS011;53978;43.846;25.952;2022-12-18T11:39:18;18.52;;;8.20;;
67065;SDS011;53978;43.846;25.952;2022-12-18T11:41:48;16.35;;;7.88;;
67065;SDS011;53978;43.846;25.952;2022-12-18T11:47:44;50.53;;;18.38;;
67065;SDS011;53978;43.846;25.952;2022-12-18T11:50:14;75.93;;;33.33;;
67065;SDS011;53978;43.846;25.952;2022-12-18T11:52:42;38.40;;;18.30;;
67065;SDS011;53978;43.846;25.952;2022-12-18T11:58:11;71.53;;;25.42;;
67065;SDS011;53978;43.846;25.952;2022-12-18T12:07:04;18.10;;;8.88;;
67065;SDS011;53978;43.846;25.952;2022-12-18T12:20:16;20.75;;;10.52;;
67065;SDS011;53978;43.846;25.952;2022-12-18T12:23:05;21.58;;;9.43;;
67065;SDS011;53978;43.846;25.952;2022-12-18T12:25:37;17.05;;;9.13;;
67065;SDS011;53978;43.846;25.952;2022-12-18T12:31:01;18.23;;;8.77;;
67065;SDS011;53978;43.846;25.952;2022-12-18T12:33:38;19.25;;;10.02;;
67065;SDS011;53978;43.846;25.952;2022-12-18T12:39:10;21.15;;;9.82;;
67065;SDS011;53978;43.846;25.952;2022-12-18T12:41:38;20.02;;;10.50;;
67065;SDS011;53978;43.846;25.952;2022-12-18T12:44:24;19.27;;;9.73;;
67065;SDS011;53978;43.846;25.952;2022-12-18T12:46:58;19.35;;;9.30;;
67065;SDS011;53978;43.846;25.952;2022-12-18T12:49:26;21.35;;;10.40;;
67065;SDS011;53978;43.846;25.952;2022-12-18T12:52:00;25.45;;;10.25;;
67065;SDS011;53978;43.846;25.952;2022-12-18T12:54:32;22.95;;;10.25;;
67065;SDS011;53978;43.846;25.952;2022-12-18T13:00:13;19.55;;;9.57;;
67065;SDS011;53978;43.846;25.952;2022-12-18T13:10:40;22.67;;;9.25;;
67065;SDS011;53978;43.846;25.952;2022-12-18T13:13:13;29.38;;;12.60;;
67065;SDS011;53978;43.846;25.952;2022-12-18T13:16:05;23.73;;;11.88;;
67065;SDS011;53978;43.846;25.952;2022-12-18T13:18:31;26.73;;;12.00;;
67065;SDS011;53978;43.846;25.952;2022-12-18T13:30:58;19.85;;;10.85;;
67065;SDS011;53978;43.846;25.952;2022-12-18T13:36:08;28.50;;;11.50;;
67065;SDS011;53978;43.846;25.952;2022-12-18T13:38:35;23.50;;;11.60;;
67065;SDS011;53978;43.846;25.952;2022-12-18T13:46:18;22.33;;;11.07;;
67065;SDS011;53978;43.846;25.952;2022-12-18T13:51:52;23.17;;;10.23;;
67065;SDS011;53978;43.846;25.952;2022-12-18T13:57:04;17.65;;;9.38;;
67065;SDS011;53978;43.846;25.952;2022-12-18T13:59:39;19.52;;;10.40;;
67065;SDS011;53978;43.846;25.952;2022-12-18T14:02:17;19.08;;;9.73;;
67065;SDS011;53978;43.846;25.952;2022-12-18T14:04:51;24.35;;;11.10;;
67065;SDS011;53978;43.846;25.952;2022-12-18T14:07:17;20.30;;;10.50;;
67065;SDS011;53978;43.846;25.952;2022-12-18T14:12:26;21.83;;;10.63;;
67065;SDS011;53978;43.846;25.952;2022-12-18T14:15:24;26.17;;;10.73;;
67065;SDS011;53978;43.846;25.952;2022-12-18T14:17:52;25.08;;;11.18;;
67065;SDS011;53978;43.846;25.952;2022-12-18T14:20:19;27.48;;;9.98;;
67065;SDS011;53978;43.846;25.952;2022-12-18T14:22:46;24.85;;;10.77;;
67065;SDS011;53978;43.846;25.952;2022-12-18T14:27:41;24.08;;;10.88;;
67065;SDS011;53978;43.846;25.952;2022-12-18T14:33:04;26.55;;;11.27;;
67065;SDS011;53978;43.846;25.952;2022-12-18T14:35:31;27.90;;;11.82;;
67065;SDS011;53978;43.846;25.952;2022-12-18T14:38:18;30.00;;;12.93;;
67065;SDS011;53978;43.846;25.952;2022-12-18T14:40:45;30.85;;;12.38;;
67065;SDS011;53978;43.846;25.952;2022-12-18T14:43:11;25.10;;;12.35;;
67065;SDS011;53978;43.846;25.952;2022-12-18T14:45:40;30.30;;;12.88;;
67065;SDS011;53978;43.846;25.952;2022-12-18T14:48:21;26.85;;;12.18;;
67065;SDS011;53978;43.846;25.952;2022-12-18T14:50:56;28.02;;;12.73;;
67065;SDS011;53978;43.846;25.952;2022-12-18T14:53:58;33.03;;;14.02;;
67065;SDS011;53978;43.846;25.952;2022-12-18T14:56:35;43.97;;;19.70;;
67065;SDS011;53978;43.846;25.952;2022-12-18T14:59:04;30.98;;;15.75;;
67065;SDS011;53978;43.846;25.952;2022-12-18T15:01:51;23.67;;;12.27;;
67065;SDS011;53978;43.846;25.952;2022-12-18T15:04:28;26.65;;;11.38;;
67065;SDS011;53978;43.846;25.952;2022-12-18T15:15:03;21.58;;;10.10;;
67065;SDS011;53978;43.846;25.952;2022-12-18T15:17:34;25.02;;;10.82;;
67065;SDS011;53978;43.846;25.952;2022-12-18T15:20:00;22.15;;;10.88;;
67065;SDS011;53978;43.846;25.952;2022-12-18T15:22:33;27.67;;;10.77;;
67065;SDS011;53978;43.846;25.952;2022-12-18T15:25:00;22.65;;;11.10;;
67065;SDS011;53978;43.846;25.952;2022-12-18T15:27:30;19.38;;;10.60;;
67065;SDS011;53978;43.846;25.952;2022-12-18T15:32:28;24.60;;;10.80;;
67065;SDS011;53978;43.846;25.952;2022-12-18T15:37:34;19.83;;;10.13;;
67065;SDS011;53978;43.846;25.952;2022-12-18T15:40:00;19.30;;;10.13;;
67065;SDS011;53978;43.846;25.952;2022-12-18T15:42:28;26.52;;;11.77;;
67065;SDS011;53978;43.846;25.952;2022-12-18T15:45:13;22.67;;;10.43;;
67065;SDS011;53978;43.846;25.952;2022-12-18T15:47:39;24.95;;;12.65;;
67065;SDS011;53978;43.846;25.952;2022-12-18T15:50:06;28.77;;;12.43;;
67065;SDS011;53978;43.846;25.952;2022-12-18T15:52:34;21.20;;;10.88;;
67065;SDS011;53978;43.846;25.952;2022-12-18T15:55:11;28.73;;;12.35;;
67065;SDS011;53978;43.846;25.952;2022-12-18T15:58:00;32.65;;;12.43;;
67065;SDS011;53978;43.846;25.952;2022-12-18T16:00:27;27.95;;;11.30;;
67065;SDS011;53978;43.846;25.952;2022-12-18T16:02:53;24.05;;;12.18;;
67065;SDS011;53978;43.846;25.952;2022-12-18T16:05:19;23.63;;;11.57;;
67065;SDS011;53978;43.846;25.952;2022-12-18T16:07:45;25.15;;;12.13;;
67065;SDS011;53978;43.846;25.952;2022-12-18T16:10:11;26.92;;;12.70;;
67065;SDS011;53978;43.846;25.952;2022-12-18T16:12:38;26.33;;;12.57;;
67065;SDS011;53978;43.846;25.952;2022-12-18T16:15:05;26.50;;;12.15;;
67065;SDS011;53978;43.846;25.952;2022-12-18T16:17:31;30.98;;;12.68;;
67065;SDS011;53978;43.846;25.952;2022-12-18T16:19:57;30.05;;;12.57;;
67065;SDS011;53978;43.846;25.952;2022-12-18T16:22:27;27.20;;;12.10;;
67065;SDS011;53978;43.846;25.952;2022-12-18T16:24:54;26.67;;;12.13;;
67065;SDS011;53978;43.846;25.952;2022-12-18T16:27:20;24.33;;;11.02;;
67065;SDS011;53978;43.846;25.952;2022-12-18T16:29:46;29.10;;;12.25;;
67065;SDS011;53978;43.846;25.952;2022-12-18T16:32:13;25.75;;;12.02;;
67065;SDS011;53978;43.846;25.952;2022-12-18T16:34:42;20.48;;;10.55;;
67065;SDS011;53978;43.846;25.952;2022-12-18T16:37:09;24.80;;;9.88;;
67065;SDS011;53978;43.846;25.952;2022-12-18T16:39:36;19.08;;;9.23;;
67065;SDS011;53978;43.846;25.952;2022-12-18T16:42:03;17.65;;;9.05;;
67065;SDS011;53978;43.846;25.952;2022-12-18T16:44:33;17.90;;;7.50;;
67065;SDS011;53978;43.846;25.952;2022-12-18T16:46:59;17.23;;;6.60;;